createdAt,value
2023-05-12T04:31:33.076Z,0.0000
2023-05-12T04:32:35.159Z,0.0000
2023-05-12T04:33:37.153Z,0.0000
2023-05-12T04:34:39.186Z,86.4615
2023-05-12T04:35:41.258Z,147.0769
2023-05-12T04:36:43.287Z,4.1538
2023-05-12T04:37:45.327Z,0.0000
2023-05-12T04:38:47.402Z,0.0000
2023-05-12T04:39:49.423Z,0.0000
2023-05-12T04:40:51.469Z,0.0000
2023-05-12T04:41:53.516Z,0.0000
2023-05-12T04:42:55.575Z,0.0000
2023-05-12T04:44:00.395Z,0.0769
2023-05-12T04:44:59.642Z,2.1538
2023-05-12T04:46:01.751Z,1.9231
2023-05-12T04:47:03.741Z,1.9231
2023-05-12T04:48:05.829Z,0.6154
2023-05-12T04:49:07.860Z,0.3077
2023-05-12T04:50:09.881Z,1.6923
2023-05-12T04:51:11.938Z,0.3846
2023-05-12T04:52:13.975Z,0.0769
2023-05-12T04:53:16.026Z,0.0000
2023-05-12T04:54:18.086Z,0.0000
2023-05-12T04:55:20.361Z,3.3077
2023-05-12T04:56:22.194Z,0.6154
2023-05-12T04:57:24.223Z,1.4615
2023-05-12T04:58:26.294Z,0.6154
2023-05-12T04:59:28.343Z,1.9231
2023-05-12T05:00:30.369Z,1.7692
2023-05-12T05:01:32.533Z,0.8462
2023-05-12T05:02:34.603Z,1.2308
2023-05-12T05:03:36.611Z,3.4615
2023-05-12T05:04:38.596Z,2.9231
2023-05-12T05:05:40.621Z,4.0000
2023-05-12T05:06:42.694Z,4.2308
2023-05-12T05:07:44.719Z,2.6923
2023-05-12T05:08:46.759Z,1.0769
2023-05-12T05:09:48.810Z,0.8462
2023-05-12T05:10:50.923Z,3.3077
2023-05-12T05:11:52.937Z,0.8462
2023-05-12T05:12:54.998Z,2.5385
2023-05-12T05:13:56.994Z,0.8462
2023-05-12T05:14:59.036Z,0.8462
2023-05-12T05:16:01.141Z,1.3077
2023-05-12T05:17:03.134Z,2.0000
2023-05-12T05:18:05.212Z,1.4615
2023-05-12T05:19:19.211Z,1.3846
2023-05-12T05:20:11.631Z,2.3077
2023-05-12T05:21:11.561Z,4.6154
2023-05-12T05:22:13.406Z,1.6923
2023-05-12T05:23:15.451Z,2.0000
2023-05-12T05:24:17.518Z,1.9231
2023-05-12T05:25:19.696Z,2.5385
2023-05-12T05:26:21.592Z,2.9231
2023-05-12T05:27:23.662Z,0.6154
2023-05-12T05:28:25.671Z,2.3077
2023-05-12T05:29:27.722Z,1.4615
2023-05-12T05:30:29.796Z,2.2308
2023-05-12T05:31:31.909Z,2.9231
2023-05-12T05:32:33.875Z,4.0769
2023-05-12T05:33:35.913Z,2.5385
2023-05-12T05:34:38.041Z,1.4615
2023-05-12T05:35:40.031Z,2.9231
2023-05-12T05:36:42.098Z,4.2308
2023-05-12T05:37:44.136Z,3.7692
2023-05-12T05:38:46.183Z,5.6154
2023-05-12T05:39:48.237Z,5.9231
2023-05-12T05:40:53.466Z,9.0000
2023-05-12T05:41:52.337Z,8.8462
2023-05-12T05:42:54.447Z,8.6154
2023-05-12T05:43:56.413Z,7.0769
2023-05-12T05:44:58.468Z,6.8462
2023-05-12T05:46:00.531Z,3.6154
2023-05-12T05:47:02.601Z,5.6923
2023-05-12T05:48:04.683Z,4.6923
2023-05-12T05:49:06.646Z,7.3846
2023-05-12T05:50:08.741Z,10.1538
2023-05-12T05:51:10.815Z,14.7692
2023-05-12T05:52:12.830Z,16.3077
2023-05-12T05:53:15.193Z,22.3077
2023-05-12T05:54:16.906Z,37.1538
2023-05-12T05:55:19.345Z,48.5385
2023-05-12T05:56:21.030Z,49.0000
2023-05-12T05:57:23.074Z,48.4615
2023-05-12T05:58:25.105Z,41.3077
2023-05-12T05:59:27.162Z,41.0000
2023-05-12T06:00:29.228Z,47.6923
2023-05-12T06:01:31.266Z,46.9231
2023-05-12T06:02:33.619Z,40.0000
2023-05-12T06:03:35.430Z,44.2308
2023-05-12T06:04:37.415Z,47.8462
2023-05-12T06:05:39.495Z,54.2308
2023-05-12T06:06:41.601Z,53.2308
2023-05-12T06:07:43.562Z,59.0769
2023-05-12T06:08:45.580Z,58.9231
2023-05-12T06:09:47.754Z,61.6154
2023-05-12T06:10:49.708Z,76.2308
2023-05-12T06:11:51.727Z,69.3077
2023-05-12T06:12:53.802Z,78.6923
2023-05-12T06:13:55.857Z,78.6154
2023-05-12T06:14:58.057Z,77.7692
2023-05-12T06:15:59.952Z,77.5385
2023-05-12T06:17:02.037Z,67.9231
2023-05-12T06:18:04.132Z,71.6154
2023-05-12T06:19:06.132Z,75.4615
2023-05-12T06:20:08.134Z,73.7692
2023-05-12T06:21:10.323Z,79.8462
2023-05-12T06:22:12.251Z,75.8462
2023-05-12T06:23:14.290Z,74.9231
2023-05-12T06:24:16.336Z,86.6154
2023-05-12T06:25:18.579Z,87.0000
2023-05-12T06:26:20.413Z,82.9231
2023-05-12T06:27:22.538Z,74.6923
2023-05-12T06:28:24.540Z,72.9231
2023-05-12T06:29:26.617Z,78.7692
2023-05-12T06:30:28.656Z,88.3077
2023-05-12T06:31:30.716Z,90.3846
2023-05-12T06:32:32.803Z,95.0769
2023-05-12T06:33:34.893Z,91.5385
2023-05-12T06:34:36.831Z,85.0000
2023-05-12T06:35:38.921Z,79.2308
2023-05-12T06:36:40.904Z,81.3846
2023-05-12T06:37:42.937Z,79.2308
2023-05-12T06:38:45.224Z,79.4615
2023-05-12T06:39:47.047Z,93.3077
2023-05-12T06:40:49.130Z,93.3077
2023-05-12T06:41:51.144Z,98.0000
2023-05-12T06:42:53.211Z,83.7692
2023-05-12T06:43:55.383Z,84.2308
2023-05-12T06:44:57.303Z,74.9231
2023-05-12T06:45:59.353Z,73.3846
2023-05-12T06:47:01.363Z,63.6923
2023-05-12T06:48:03.497Z,60.7692
2023-05-12T06:49:05.578Z,63.6154
2023-05-12T06:50:07.523Z,65.9231
2023-05-12T06:51:09.571Z,76.5385
2023-05-12T06:52:11.605Z,93.0769
2023-05-12T06:53:13.694Z,125.1538
2023-05-12T06:54:15.693Z,139.8462
2023-05-12T06:55:17.915Z,111.6154
2023-05-12T06:56:19.797Z,79.6154
2023-05-12T06:57:21.813Z,69.6923
2023-05-12T06:58:23.933Z,61.8462
2023-05-12T06:59:25.921Z,54.0000
2023-05-12T07:00:27.967Z,49.6923
2023-05-12T07:01:30.106Z,52.9231
2023-05-12T07:02:32.170Z,52.3846
2023-05-12T07:03:34.118Z,54.2308
2023-05-12T07:04:36.153Z,60.3077
2023-05-12T07:05:38.250Z,57.0000
2023-05-12T07:06:40.270Z,53.7692
2023-05-12T07:07:42.262Z,52.5385
2023-05-12T07:08:44.338Z,53.4615
2023-05-12T07:09:46.371Z,56.6923
2023-05-12T07:10:48.441Z,55.3846
2023-05-12T07:11:50.453Z,58.4615
2023-05-12T07:12:52.478Z,59.0000
2023-05-12T07:13:54.566Z,60.0769
2023-05-12T07:14:56.602Z,70.0000
2023-05-12T07:15:58.669Z,67.0000
2023-05-12T07:17:00.688Z,58.7692
2023-05-12T07:18:02.764Z,58.1538
2023-05-12T07:19:04.850Z,57.0769
2023-05-12T07:20:06.812Z,53.0769
2023-05-12T07:21:08.874Z,54.3846
2023-05-12T07:22:10.903Z,55.6154
2023-05-12T07:23:12.986Z,55.1538
2023-05-12T07:24:15.050Z,63.1538
2023-05-12T07:25:17.119Z,64.6154
2023-05-12T07:26:19.117Z,58.3077
2023-05-12T07:27:21.145Z,56.3846
2023-05-12T07:28:23.203Z,63.4615
2023-05-12T07:29:25.234Z,59.4615
2023-05-12T07:30:27.282Z,56.1538
2023-05-12T07:31:29.377Z,50.3077
2023-05-12T07:32:31.401Z,44.8462
2023-05-12T07:33:33.430Z,51.5385
2023-05-12T07:34:35.482Z,47.9231
2023-05-12T07:35:37.525Z,45.6154
2023-05-12T07:36:39.654Z,55.0769
2023-05-12T07:37:41.624Z,64.5385
2023-05-12T07:38:43.670Z,62.1538
2023-05-12T07:39:45.744Z,64.9231
2023-05-12T07:40:47.765Z,65.5385
2023-05-12T07:41:49.812Z,57.7692
2023-05-12T07:42:51.874Z,49.1538
2023-05-12T07:43:53.882Z,53.5385
2023-05-12T07:44:55.905Z,52.1538
2023-05-12T07:45:57.971Z,45.3077
2023-05-12T07:47:00.081Z,46.5385
2023-05-12T07:48:02.130Z,53.0769
2023-05-12T07:49:04.110Z,51.0000
2023-05-12T07:50:06.151Z,49.6154
2023-05-12T07:51:08.196Z,45.2308
2023-05-12T07:52:10.330Z,43.9231
2023-05-12T07:53:12.293Z,43.7692
2023-05-12T07:54:14.351Z,45.5385
2023-05-12T07:55:16.386Z,52.3846
2023-05-12T07:56:18.430Z,51.6154
2023-05-12T07:57:20.467Z,51.1538
2023-05-12T07:58:22.535Z,52.9231
2023-05-12T07:59:24.584Z,51.5385
2023-05-12T08:00:26.618Z,47.7692
2023-05-12T08:01:28.671Z,49.0000
2023-05-12T08:02:30.835Z,56.2308
2023-05-12T08:03:32.829Z,65.6923
2023-05-12T08:04:34.877Z,63.9231
2023-05-12T08:05:36.953Z,69.3077
2023-05-12T08:06:38.895Z,65.4615
2023-05-12T08:07:41.201Z,63.2308
2023-05-12T08:08:43.051Z,57.5385
2023-05-12T08:09:45.020Z,61.0000
2023-05-12T08:10:47.084Z,63.1538
2023-05-12T08:11:50.828Z,68.5385
2023-05-12T08:12:51.180Z,72.9231
2023-05-12T08:13:53.199Z,70.9231
2023-05-12T08:14:55.266Z,70.6923
2023-05-12T08:15:57.289Z,69.0000
2023-05-12T08:16:59.530Z,67.6154
2023-05-12T08:18:01.571Z,69.1538
2023-05-12T08:19:03.476Z,70.6923
2023-05-12T08:20:05.526Z,65.3077
2023-05-12T08:21:07.535Z,67.2308
2023-05-12T08:22:09.568Z,65.6923
2023-05-12T08:23:11.633Z,62.1538
2023-05-12T08:24:13.749Z,64.9231
2023-05-12T08:25:15.717Z,73.2308
2023-05-12T08:26:17.761Z,70.6923
2023-05-12T08:27:19.845Z,72.6923
2023-05-12T08:28:21.873Z,74.5385
2023-05-12T08:29:23.929Z,77.8462
2023-05-12T08:30:25.977Z,75.3846
2023-05-12T08:31:28.079Z,80.7692
2023-05-12T08:32:30.107Z,73.6154
2023-05-12T08:33:32.116Z,71.6154
2023-05-12T08:34:34.232Z,75.6154
2023-05-12T08:35:36.273Z,77.6923
2023-05-12T08:36:38.317Z,78.0000
2023-05-12T08:37:40.384Z,82.3846
2023-05-12T08:38:42.452Z,86.5385
2023-05-12T08:39:44.564Z,83.1538
2023-05-12T08:40:46.616Z,81.3077
2023-05-12T08:41:48.582Z,85.9231
2023-05-12T08:42:50.619Z,85.7692
2023-05-12T08:43:52.701Z,82.2308
2023-05-12T08:44:54.799Z,84.2308
2023-05-12T08:45:56.815Z,82.2308
2023-05-12T08:46:58.856Z,82.0000
2023-05-12T08:48:00.938Z,86.7692
2023-05-12T08:49:02.928Z,88.3077
2023-05-12T08:50:05.002Z,90.3077
2023-05-12T08:51:06.995Z,92.3846
2023-05-12T08:52:09.068Z,94.5385
2023-05-12T08:53:11.139Z,95.3077
2023-05-12T08:54:13.190Z,97.4615
2023-05-12T08:55:15.405Z,99.0000
2023-05-12T08:57:19.317Z,92.8462
2023-05-12T08:58:27.797Z,94.7692
2023-05-12T08:59:23.417Z,92.0000
2023-05-12T09:00:25.513Z,83.6154
2023-05-12T09:01:27.487Z,82.0000
2023-05-12T09:02:37.570Z,84.3846
2023-05-12T09:03:31.603Z,88.7692
2023-05-12T09:04:33.688Z,91.9231
2023-05-12T09:05:35.665Z,90.7692
2023-05-12T09:06:37.738Z,96.5385
2023-05-12T09:07:39.780Z,94.6154
2023-05-12T09:08:41.847Z,93.5385
2023-05-12T09:09:43.867Z,90.3077
2023-05-12T09:10:45.963Z,89.2308
2023-05-12T09:11:47.951Z,89.0000
2023-05-12T09:12:50.018Z,85.3846
2023-05-12T09:13:52.061Z,89.3077
2023-05-12T09:14:54.089Z,96.8462
2023-05-12T09:15:56.196Z,94.5385
2023-05-12T09:16:58.201Z,94.4615
2023-05-12T09:18:00.292Z,95.2308
2023-05-12T09:19:03.146Z,99.8462
2023-05-12T09:20:04.338Z,103.2308
2023-05-12T09:21:06.432Z,105.6923
2023-05-12T09:22:08.455Z,107.9231
2023-05-12T09:23:10.512Z,105.8462
2023-05-12T09:24:12.524Z,103.0769
2023-05-12T09:25:14.922Z,104.4615
2023-05-12T09:26:16.654Z,106.0000
2023-05-12T09:27:18.677Z,100.6154
2023-05-12T09:28:20.730Z,103.7692
2023-05-12T09:29:31.319Z,101.0000
2023-05-12T09:30:24.810Z,96.8462
2023-05-12T09:31:26.921Z,107.3077
2023-05-12T09:32:28.964Z,107.6154
2023-05-12T09:33:30.996Z,107.8462
2023-05-12T09:34:33.029Z,113.9231
2023-05-12T09:35:35.078Z,106.6154
2023-05-12T09:36:37.130Z,104.3846
2023-05-12T09:37:39.311Z,105.6923
2023-05-12T09:38:41.235Z,98.5385
2023-05-12T09:39:43.259Z,99.2308
2023-05-12T09:40:45.419Z,98.3846
2023-05-12T09:41:47.365Z,88.6154
2023-05-12T09:42:49.426Z,89.9231
2023-05-12T09:43:51.480Z,93.3846
2023-05-12T09:44:53.518Z,83.1538
2023-05-12T09:45:55.633Z,82.0000
2023-05-12T09:46:57.598Z,90.0769
2023-05-12T09:47:59.727Z,95.3077
2023-05-12T09:49:01.711Z,94.3846
2023-05-12T09:50:03.747Z,91.1538
2023-05-12T09:51:06.053Z,83.4615
2023-05-12T09:52:07.830Z,79.0000
2023-05-12T09:53:09.953Z,80.1538
2023-05-12T09:54:11.924Z,84.6154
2023-05-12T09:55:14.005Z,76.8462
2023-05-12T09:56:16.040Z,71.6923
2023-05-12T09:57:18.087Z,67.0769
2023-05-12T09:58:20.098Z,68.3846
2023-05-12T09:59:22.176Z,75.7692
2023-05-12T10:01:26.332Z,68.1538
2023-05-12T10:02:28.427Z,72.0769
2023-05-12T10:03:30.413Z,74.2308
2023-05-12T10:04:32.508Z,72.0000
2023-05-12T10:05:34.434Z,72.3846
2023-05-12T10:06:36.491Z,72.0769
2023-05-12T10:07:38.554Z,68.6154
2023-05-12T10:08:40.602Z,69.3846
2023-05-12T10:09:42.660Z,76.8462
2023-05-12T10:10:44.655Z,85.4615
2023-05-12T10:11:46.711Z,94.0000
2023-05-12T10:12:48.784Z,109.8462
2023-05-12T10:13:50.810Z,107.7692
2023-05-12T10:14:52.896Z,89.3846
2023-05-12T10:15:54.928Z,84.3077
2023-05-12T10:16:57.028Z,82.4615
2023-05-12T10:17:59.022Z,76.0000
2023-05-12T10:19:01.083Z,78.7692
2023-05-12T10:20:03.140Z,81.8462
2023-05-12T10:21:05.187Z,83.6923
2023-05-12T10:22:07.211Z,86.8462
2023-05-12T10:23:09.345Z,78.8462
2023-05-12T10:24:11.284Z,79.3077
2023-05-12T10:25:13.348Z,80.3077
2023-05-12T10:26:15.401Z,67.4615
2023-05-12T10:27:17.466Z,68.8462
2023-05-12T10:28:19.482Z,64.6923
2023-05-12T10:29:21.544Z,60.8462
2023-05-12T10:30:23.614Z,60.5385
2023-05-12T10:31:25.673Z,71.0000
2023-05-12T10:32:27.691Z,73.3077
2023-05-12T10:33:29.717Z,70.2308
2023-05-12T10:34:31.850Z,69.9231
2023-05-12T10:35:33.862Z,79.0000
2023-05-12T10:36:35.862Z,76.2308
2023-05-12T10:37:38.599Z,74.3077
2023-05-12T10:38:39.988Z,74.6923
2023-05-12T10:39:42.083Z,79.4615
2023-05-12T10:40:44.059Z,72.9231
2023-05-12T10:41:46.209Z,78.4615
2023-05-12T10:42:48.186Z,79.4615
2023-05-12T10:43:50.251Z,75.0000
2023-05-12T10:44:52.308Z,78.7692
2023-05-12T10:45:54.509Z,76.6923
2023-05-12T10:46:56.367Z,69.0000
2023-05-12T10:47:58.466Z,72.5385
2023-05-12T10:49:00.490Z,68.5385
2023-05-12T10:50:02.579Z,64.8462
2023-05-12T10:51:04.594Z,63.0769
2023-05-12T10:52:06.656Z,67.2308
2023-05-12T10:53:09.965Z,74.0000
2023-05-12T10:54:10.747Z,81.7692
2023-05-12T10:55:12.816Z,84.7692
2023-05-12T10:56:15.034Z,77.8462
2023-05-12T10:57:18.908Z,82.7692
2023-05-12T10:58:19.313Z,83.3846
2023-05-12T10:59:21.405Z,82.3077
2023-05-12T11:00:23.808Z,82.5385
2023-05-12T11:01:25.305Z,81.6923
2023-05-12T11:02:27.917Z,76.8462
2023-05-12T11:03:30.374Z,74.6154
2023-05-12T11:04:31.359Z,62.0769
2023-05-12T11:05:33.529Z,64.6154
2023-05-12T11:06:36.337Z,61.7692
2023-05-12T11:07:37.800Z,70.3846
2023-05-12T11:08:40.186Z,63.8462
2023-05-12T11:09:52.400Z,60.9231
2023-05-12T11:10:43.575Z,65.4615
2023-05-12T11:11:45.864Z,60.0000
2023-05-12T11:12:47.625Z,52.6154
2023-05-12T11:13:49.708Z,55.5385
2023-05-12T11:14:51.740Z,48.0000
2023-05-12T11:15:53.835Z,42.1538
2023-05-12T11:16:55.912Z,41.2308
2023-05-12T11:17:57.930Z,29.8462
2023-05-12T11:19:00.029Z,21.7692
2023-05-12T11:20:02.156Z,18.8462
2023-05-12T11:21:04.066Z,22.6154
2023-05-12T11:22:06.068Z,23.0769
2023-05-12T11:23:08.133Z,32.0000
2023-05-12T11:24:13.161Z,38.8462
2023-05-12T11:25:12.915Z,40.1538
2023-05-12T11:26:14.290Z,45.3077
2023-05-12T11:27:16.323Z,45.5385
2023-05-12T11:28:18.384Z,47.0000
2023-05-12T11:29:20.425Z,45.5385
2023-05-12T11:30:22.482Z,45.5385
2023-05-12T11:31:24.583Z,51.2308
2023-05-12T11:32:26.732Z,55.3846
2023-05-12T11:33:28.763Z,48.6923
2023-05-12T11:34:30.706Z,47.4615
2023-05-12T11:35:32.796Z,52.0000
2023-05-12T11:36:34.760Z,53.6923
2023-05-12T11:37:36.890Z,61.5385
2023-05-12T11:38:38.865Z,65.6154
2023-05-12T11:39:40.923Z,64.9231
2023-05-12T11:40:42.944Z,62.7692
2023-05-12T11:41:45.002Z,59.3846
2023-05-12T11:42:47.206Z,56.3077
2023-05-12T11:43:49.118Z,58.5385
2023-05-12T11:44:51.155Z,71.2308
2023-05-12T11:45:53.251Z,78.3846
2023-05-12T11:46:55.256Z,74.0000
2023-05-12T11:47:59.272Z,64.1538
2023-05-12T11:48:59.427Z,70.9231
2023-05-12T11:50:01.379Z,77.2308
2023-05-12T11:51:03.456Z,71.3077
2023-05-12T11:52:05.491Z,69.4615
2023-05-12T11:53:07.517Z,64.9231
2023-05-12T11:54:09.610Z,67.2308
2023-05-12T11:55:11.658Z,66.9231
2023-05-12T11:56:13.692Z,63.9231
2023-05-12T11:57:15.746Z,59.1538
2023-05-12T11:58:17.794Z,61.4615
2023-05-12T11:59:19.901Z,62.0769
2023-05-12T12:00:21.884Z,62.5385
2023-05-12T12:01:23.939Z,57.6154
2023-05-12T12:02:26.020Z,64.1538
2023-05-12T12:03:28.139Z,67.6154
2023-05-12T12:04:30.187Z,74.3077
2023-05-12T12:05:32.111Z,75.3846
2023-05-12T12:06:34.169Z,71.9231
2023-05-12T12:07:36.224Z,62.1538
2023-05-12T12:08:38.354Z,53.0769
2023-05-12T12:09:40.295Z,52.3077
2023-05-12T12:10:42.376Z,61.8462
2023-05-12T12:11:44.401Z,63.8462
2023-05-12T12:12:46.421Z,63.0769
2023-05-12T12:13:48.470Z,65.5385
2023-05-12T12:14:50.606Z,71.5385
2023-05-12T12:15:52.621Z,72.9231
2023-05-12T12:16:54.632Z,73.5385
2023-05-12T12:17:56.784Z,72.0769
2023-05-12T12:18:58.731Z,74.8462
2023-05-12T12:20:00.770Z,85.1538
2023-05-12T12:21:02.870Z,85.3077
2023-05-12T12:22:04.849Z,81.5385
2023-05-12T12:23:06.903Z,76.9231
2023-05-12T12:24:08.960Z,77.2308
2023-05-12T12:25:10.992Z,67.5385
2023-05-12T12:26:13.156Z,65.8462
2023-05-12T12:27:15.094Z,69.4615
2023-05-12T12:28:17.125Z,62.0769
2023-05-12T12:29:19.147Z,62.1538
2023-05-12T12:30:21.193Z,65.6154
2023-05-12T12:31:23.288Z,64.6923
2023-05-12T12:32:25.323Z,67.0000
2023-05-12T12:33:27.504Z,56.6923
2023-05-12T12:34:29.396Z,59.8462
2023-05-12T12:35:31.460Z,64.0000
2023-05-12T12:36:33.468Z,72.9231
2023-05-12T12:37:35.532Z,75.0000
2023-05-12T12:38:37.576Z,73.4615
2023-05-12T12:39:39.730Z,69.2308
2023-05-12T12:40:41.785Z,66.5385
2023-05-12T12:41:43.789Z,68.0769
2023-05-12T12:42:45.823Z,64.0000
2023-05-12T12:43:47.871Z,66.1538
2023-05-12T12:44:49.930Z,68.5385
2023-05-12T12:45:52.100Z,68.1538
2023-05-12T12:46:54.026Z,62.0000
2023-05-12T12:47:56.087Z,58.3846
2023-05-12T12:48:58.091Z,56.4615
2023-05-12T12:50:00.216Z,53.2308
2023-05-12T12:51:02.209Z,48.0769
2023-05-12T12:52:04.257Z,53.3077
2023-05-12T12:53:06.429Z,54.0769
2023-05-12T12:54:08.352Z,53.6923
2023-05-12T12:55:10.400Z,49.4615
2023-05-12T12:56:12.434Z,47.8462
2023-05-12T12:57:14.522Z,48.0769
2023-05-12T12:58:16.519Z,47.0000
2023-05-12T12:59:18.605Z,46.6923
2023-05-12T13:00:20.629Z,56.9231
2023-05-12T13:01:22.762Z,60.4615
2023-05-12T13:02:24.979Z,58.7692
2023-05-12T13:03:26.797Z,65.3077
2023-05-12T13:04:28.912Z,56.6154
2023-05-12T13:05:30.886Z,44.2308
2023-05-12T13:06:32.920Z,49.8462
2023-05-12T13:07:34.990Z,56.1538
2023-05-12T13:08:37.025Z,60.5385
2023-05-12T13:09:39.134Z,118.3846
2023-05-12T13:10:41.152Z,124.8462
2023-05-12T13:11:43.181Z,110.8462
2023-05-12T13:12:45.215Z,92.7692
2023-05-12T13:13:47.297Z,84.3846
2023-05-12T13:14:49.323Z,82.2308
2023-05-12T13:15:51.357Z,71.6154
2023-05-12T13:16:53.463Z,64.8462
2023-05-12T13:17:55.517Z,67.4615
2023-05-12T13:18:57.598Z,63.3077
2023-05-12T13:19:59.568Z,59.2308
2023-05-12T13:21:01.637Z,59.9231
2023-05-12T13:22:03.679Z,55.9231
2023-05-12T13:23:05.718Z,50.9231
2023-05-12T13:24:07.767Z,46.6923
2023-05-12T13:25:09.790Z,45.4615
2023-05-12T13:26:11.869Z,50.8462
2023-05-12T13:27:13.888Z,48.6154
2023-05-12T13:28:15.986Z,48.2308
2023-05-12T13:29:18.004Z,54.6154
2023-05-12T13:30:20.045Z,53.0769
2023-05-12T13:31:22.131Z,58.0000
2023-05-12T13:32:24.183Z,56.4615
2023-05-12T13:33:26.192Z,62.2308
2023-05-12T13:34:28.250Z,65.3846
2023-05-12T13:35:30.311Z,63.8462
2023-05-12T13:36:32.340Z,54.9231
2023-05-12T13:37:34.382Z,49.6923
2023-05-12T13:38:36.481Z,51.3077
2023-05-12T13:39:38.507Z,51.7692
2023-05-12T13:40:40.541Z,48.6923
2023-05-12T13:41:42.570Z,50.9231
2023-05-12T13:42:44.645Z,48.5385
2023-05-12T13:43:46.666Z,44.7692
2023-05-12T13:44:48.738Z,48.2308
2023-05-12T13:45:50.788Z,55.8462
2023-05-12T13:46:52.843Z,58.0769
2023-05-12T13:47:54.958Z,67.4615
2023-05-12T13:48:56.962Z,62.3846
2023-05-12T13:49:59.044Z,58.3846
2023-05-12T13:51:01.005Z,54.1538
2023-05-12T13:52:03.069Z,51.3077
2023-05-12T13:53:05.095Z,51.5385
2023-05-12T13:54:07.154Z,56.0769
2023-05-12T13:55:09.237Z,51.2308
2023-05-12T13:56:11.265Z,46.7692
2023-05-12T13:57:13.327Z,44.6923
2023-05-12T13:58:15.380Z,44.5385
2023-05-12T13:59:17.410Z,34.1538
2023-05-12T14:00:19.471Z,35.4615
2023-05-12T14:01:21.555Z,42.0000
2023-05-12T14:02:23.598Z,44.4615
2023-05-12T14:03:25.581Z,40.6923
2023-05-12T14:04:27.656Z,40.7692
2023-05-12T14:05:29.730Z,39.8462
2023-05-12T14:06:31.719Z,37.9231
2023-05-12T14:07:33.765Z,36.8462
2023-05-12T14:08:35.849Z,39.6923
2023-05-12T14:09:37.880Z,44.3846
2023-05-12T14:10:39.926Z,44.5385
2023-05-12T14:11:41.990Z,47.7692
2023-05-12T14:12:44.036Z,49.3846
2023-05-12T14:13:46.072Z,41.6154
2023-05-12T14:14:48.142Z,38.2308
2023-05-12T14:15:50.466Z,38.2308
2023-05-12T14:16:52.361Z,39.9231
2023-05-12T14:17:54.359Z,38.3846
2023-05-12T14:18:56.397Z,36.1538
2023-05-12T14:19:58.370Z,37.0000
2023-05-12T14:21:00.457Z,36.4615
2023-05-12T14:22:05.860Z,44.3846
2023-05-12T14:23:04.545Z,46.1538
2023-05-12T14:24:06.592Z,43.1538
2023-05-12T14:25:08.665Z,41.8462
2023-05-12T14:26:10.675Z,51.2308
2023-05-12T14:27:12.747Z,43.6154
2023-05-12T14:28:14.860Z,39.3846
2023-05-12T14:29:16.886Z,43.0769
2023-05-12T14:30:19.038Z,45.7692
2023-05-12T14:31:20.954Z,42.6923
2023-05-12T14:32:23.004Z,42.1538
2023-05-12T14:33:25.038Z,37.3846
2023-05-12T14:34:27.103Z,36.7692
2023-05-12T14:35:29.163Z,41.8462
2023-05-12T14:36:31.203Z,42.4615
2023-05-12T14:37:33.228Z,40.3077
2023-05-12T14:38:35.302Z,40.3846
2023-05-12T14:39:37.334Z,48.7692
2023-05-12T14:40:40.336Z,71.4615
2023-05-12T14:41:41.460Z,94.6154
2023-05-12T14:42:43.577Z,100.6923
2023-05-12T14:43:45.529Z,94.2308
2023-05-12T14:44:47.598Z,90.9231
2023-05-12T14:45:49.702Z,92.8462
2023-05-12T14:46:51.696Z,90.4615
2023-05-12T14:47:53.798Z,85.3077
2023-05-12T14:48:55.827Z,88.0769
2023-05-12T14:49:57.815Z,91.0000
2023-05-12T14:50:59.901Z,97.5385
2023-05-12T14:52:01.947Z,107.6154
2023-05-12T14:53:04.087Z,114.0000
2023-05-12T14:54:12.594Z,108.8462
2023-05-12T14:55:09.077Z,119.0769
2023-05-12T14:56:10.177Z,128.2308
2023-05-12T14:57:12.206Z,130.1538
2023-05-12T14:58:14.311Z,136.4615
2023-05-12T14:59:16.282Z,133.4615
2023-05-12T15:00:18.329Z,142.8462
2023-05-12T15:01:20.403Z,185.8462
2023-05-12T15:02:22.457Z,183.6154
2023-05-12T15:03:24.688Z,175.7692
2023-05-12T15:04:26.557Z,150.5385
2023-05-12T15:05:41.335Z,134.6154
2023-05-12T15:06:30.653Z,131.2308
2023-05-12T15:07:32.659Z,123.7692
2023-05-12T15:08:34.790Z,118.6154
2023-05-12T15:09:36.778Z,116.3846
2023-05-12T15:10:38.807Z,108.8462
2023-05-12T15:11:40.866Z,109.0000
2023-05-12T15:12:42.914Z,97.4615
2023-05-12T15:13:44.946Z,85.9231
2023-05-12T15:14:47.015Z,76.0000
2023-05-12T15:15:51.836Z,71.2308
2023-05-12T15:16:51.136Z,77.9231
2023-05-12T15:17:53.214Z,83.4615
2023-05-12T15:18:55.254Z,79.2308
2023-05-12T15:19:57.339Z,73.9231
2023-05-12T15:20:59.306Z,72.6923
2023-05-12T15:22:01.352Z,68.0769
2023-05-12T15:23:03.390Z,74.2308
2023-05-12T15:24:05.466Z,71.7692
2023-05-12T15:25:07.507Z,80.6154
2023-05-12T15:26:26.950Z,134.7692
2023-05-12T15:27:11.591Z,109.4615
2023-05-12T15:28:13.672Z,97.3077
2023-05-12T15:29:15.697Z,92.5385
2023-05-12T15:30:17.751Z,91.3077
2023-05-12T15:31:20.385Z,74.3846
2023-05-12T15:32:21.850Z,70.0000
2023-05-12T15:33:23.883Z,74.5385
2023-05-12T15:34:25.945Z,71.4615
2023-05-12T15:35:27.969Z,75.7692
2023-05-12T15:36:30.016Z,78.0769
2023-05-12T15:37:32.289Z,83.3077
2023-05-12T15:38:34.125Z,78.6154
2023-05-12T15:39:36.153Z,76.4615
2023-05-12T15:40:38.305Z,76.4615
2023-05-12T15:41:40.305Z,78.9231
2023-05-12T15:42:42.331Z,84.6923
2023-05-12T15:43:44.342Z,91.6154
2023-05-12T15:44:46.615Z,95.4615
2023-05-12T15:45:48.547Z,94.5385
2023-05-12T15:46:50.643Z,99.3077
2023-05-12T15:47:52.593Z,103.4615
2023-05-12T15:48:54.588Z,94.8462
2023-05-12T15:49:56.649Z,96.2308
2023-05-12T15:50:58.702Z,99.7692
2023-05-12T15:52:00.740Z,103.7692
2023-05-12T15:53:02.766Z,104.4615
2023-05-12T15:54:05.587Z,106.3846
2023-05-12T15:55:07.039Z,108.6923
2023-05-12T15:56:08.980Z,106.6154
2023-05-12T15:57:11.029Z,112.6154
2023-05-12T15:58:13.041Z,110.4615
2023-05-12T15:59:15.121Z,107.7692
2023-05-12T16:00:17.205Z,116.8462
2023-05-12T16:01:19.232Z,115.8462
2023-05-12T16:02:21.231Z,118.3077
2023-05-12T16:03:23.515Z,118.0769
2023-05-12T16:04:25.341Z,118.5385
2023-05-12T16:05:27.367Z,122.4615
2023-05-12T16:06:29.401Z,124.1538
2023-05-12T16:07:31.498Z,112.7692
2023-05-12T16:08:33.531Z,105.7692
2023-05-12T16:09:35.549Z,97.8462
2023-05-12T16:10:37.725Z,96.1538
2023-05-12T16:11:39.834Z,95.5385
2023-05-12T16:12:41.910Z,99.3846
2023-05-12T16:13:43.793Z,91.0000
2023-05-12T16:14:45.797Z,89.7692
2023-05-12T16:15:47.842Z,77.5385
2023-05-12T16:16:49.917Z,76.4615
2023-05-12T16:17:51.973Z,74.4615
2023-05-12T16:18:53.989Z,76.8462
2023-05-12T16:19:56.099Z,68.9231
2023-05-12T16:20:58.146Z,68.4615
2023-05-12T16:22:00.371Z,68.0769
2023-05-12T16:23:02.172Z,71.4615
2023-05-12T16:24:04.214Z,75.1538
2023-05-12T16:25:06.258Z,66.4615
2023-05-12T16:26:08.338Z,63.8462
2023-05-12T16:27:10.398Z,66.6923
2023-05-12T16:28:12.430Z,68.5385
2023-05-12T16:29:14.467Z,71.0000
2023-05-12T16:30:18.496Z,69.4615
2023-05-12T16:31:18.814Z,71.7692
2023-05-12T16:32:20.729Z,69.8462
2023-05-12T16:33:22.653Z,67.7692
2023-05-12T16:34:24.729Z,71.0769
2023-05-12T16:35:26.832Z,88.0769
2023-05-12T16:36:28.889Z,93.9231
2023-05-12T16:37:30.886Z,84.1538
2023-05-12T16:38:33.090Z,75.6154
2023-05-12T16:39:34.968Z,72.7692
2023-05-12T16:40:37.041Z,76.2308
2023-05-12T16:41:39.088Z,78.7692
2023-05-12T16:42:41.116Z,74.9231
2023-05-12T16:43:43.260Z,73.7692
2023-05-12T16:44:45.294Z,75.1538
2023-05-12T16:45:47.398Z,76.6923
2023-05-12T16:46:49.549Z,78.8462
2023-05-12T16:47:51.543Z,75.3077
2023-05-12T16:48:53.519Z,73.9231
2023-05-12T16:49:55.567Z,76.3846
2023-05-12T16:50:57.619Z,75.9231
2023-05-12T16:51:59.650Z,76.0769
2023-05-12T16:53:01.716Z,78.0000
2023-05-12T16:54:03.798Z,73.0000
2023-05-12T16:55:05.816Z,72.8462
2023-05-12T16:56:07.865Z,73.6154
2023-05-12T16:57:09.914Z,79.7692
2023-05-12T16:58:11.932Z,71.6154
2023-05-12T16:59:14.011Z,69.1538
2023-05-12T17:00:16.095Z,69.8462
2023-05-12T17:01:18.192Z,78.9231
2023-05-12T17:02:20.164Z,77.3077
2023-05-12T17:03:22.248Z,83.9231
2023-05-12T17:04:24.251Z,86.5385